createdAt,value
2018-12-13T00:01:55.935Z,0.30
2018-12-13T00:04:24.107Z,0.30
2018-12-13T00:06:52.494Z,0.20
2018-12-13T00:09:20.767Z,0.20
2018-12-13T00:11:48.864Z,0.10
2018-12-13T00:14:17.107Z,0.10
2018-12-13T00:16:45.300Z,0.00
2018-12-13T00:19:13.541Z,0.00
2018-12-13T00:21:41.627Z,0.10
2018-12-13T00:24:09.924Z,0.10
2018-12-13T00:26:38.177Z,0.00
2018-12-13T00:29:06.334Z,0.00
2018-12-13T00:31:34.563Z,0.00
2018-12-13T00:34:02.807Z,0.00
2018-12-13T00:36:30.924Z,-0.10
2018-12-13T00:38:59.063Z,-0.10
2018-12-13T00:41:27.283Z,-0.20
2018-12-13T00:43:55.571Z,-0.20
2018-12-13T00:46:23.790Z,-0.30
2018-12-13T00:48:51.891Z,-0.30
2018-12-13T00:51:20.124Z,-0.30
2018-12-13T00:53:48.364Z,-0.30
2018-12-13T00:56:16.589Z,-0.30
2018-12-13T00:58:44.702Z,-0.30
2018-12-13T01:01:12.826Z,-0.40
2018-12-13T01:03:41.003Z,-0.50
2018-12-13T01:06:09.332Z,-0.50
2018-12-13T01:08:37.513Z,-0.50
2018-12-13T01:11:05.823Z,-0.50
2018-12-13T01:13:34.085Z,-0.50
2018-12-13T01:16:02.201Z,-0.50
2018-12-13T01:18:30.307Z,-0.50
2018-12-13T01:20:58.483Z,-0.50
2018-12-13T01:23:26.658Z,-0.50
2018-12-13T01:25:54.827Z,-0.50
2018-12-13T01:28:22.991Z,-0.50
2018-12-13T01:30:51.122Z,-0.60
2018-12-13T01:33:19.252Z,-0.70
2018-12-13T01:35:47.394Z,-0.70
2018-12-13T01:38:15.606Z,-0.80
2018-12-13T01:40:43.733Z,-0.80
2018-12-13T01:43:11.899Z,-0.80
2018-12-13T01:45:40.027Z,-0.80
2018-12-13T01:48:08.188Z,-0.90
2018-12-13T01:50:36.467Z,-0.90
2018-12-13T01:53:04.704Z,-0.90
2018-12-13T01:55:32.934Z,-0.90
2018-12-13T01:58:01.242Z,-0.90
2018-12-13T02:00:29.458Z,-0.90
2018-12-13T02:02:57.674Z,-0.90
2018-12-13T02:05:25.854Z,-0.90
2018-12-13T02:07:54.071Z,-0.90
2018-12-13T02:10:22.210Z,-0.90
2018-12-13T02:12:50.446Z,-1.00
2018-12-13T02:15:18.638Z,-1.00
2018-12-13T02:17:46.735Z,-1.00
2018-12-13T02:20:14.842Z,-1.10
2018-12-13T02:22:43.025Z,-1.10
2018-12-13T02:25:11.254Z,-1.10
2018-12-13T02:27:39.551Z,-1.20
2018-12-13T02:30:09.704Z,-1.20
2018-12-13T02:32:37.830Z,-1.20
2018-12-13T02:35:06.254Z,-1.20
2018-12-13T02:37:34.516Z,-1.20
2018-12-13T02:40:02.770Z,-1.30
2018-12-13T02:42:31.132Z,-1.20
2018-12-13T02:44:59.258Z,-1.20
2018-12-13T02:47:27.399Z,-1.20
2018-12-13T02:49:55.615Z,-1.00
2018-12-13T02:52:23.738Z,-0.80
2018-12-13T02:54:51.858Z,-0.80
2018-12-13T02:57:20.055Z,-0.70
2018-12-13T02:59:48.339Z,-0.60
2018-12-13T03:02:16.598Z,-0.50
2018-12-13T03:04:44.801Z,-0.50
2018-12-13T03:07:14.005Z,-0.50
2018-12-13T03:09:42.448Z,-0.30
2018-12-13T03:12:10.697Z,-0.20
2018-12-13T03:14:38.831Z,-0.20
2018-12-13T03:17:07.018Z,-0.20
2018-12-13T03:19:35.347Z,-0.10
2018-12-13T03:22:03.601Z,-0.10
2018-12-13T03:24:31.808Z,-0.10
2018-12-13T03:27:00.001Z,-0.20
2018-12-13T03:29:28.197Z,-0.20
2018-12-13T03:31:56.398Z,-0.10
2018-12-13T03:34:24.591Z,-0.20
2018-12-13T03:36:53.066Z,-0.20
2018-12-13T03:39:21.320Z,-0.20
2018-12-13T03:41:49.513Z,-0.20
2018-12-13T03:44:17.735Z,-0.30
2018-12-13T03:46:45.990Z,-0.40
2018-12-13T03:49:14.170Z,-0.40
2018-12-13T03:51:42.287Z,-0.40
2018-12-13T03:54:10.526Z,-0.50
2018-12-13T03:56:38.663Z,-0.50
2018-12-13T03:59:06.886Z,-0.60
2018-12-13T04:01:35.273Z,-0.60
2018-12-13T04:04:03.460Z,-0.70
2018-12-13T04:06:31.684Z,-0.60
2018-12-13T04:08:59.893Z,-0.70
2018-12-13T04:11:28.068Z,-0.80
2018-12-13T04:13:56.347Z,-0.90
2018-12-13T04:16:24.435Z,-1.00
2018-12-13T04:18:52.639Z,-1.00
2018-12-13T04:21:20.803Z,-1.00
2018-12-13T04:23:48.948Z,-1.10
2018-12-13T04:26:17.159Z,-1.10
2018-12-13T04:28:45.318Z,-1.00
2018-12-13T04:31:13.487Z,-1.00
2018-12-13T04:33:41.930Z,-1.00
2018-12-13T04:36:10.102Z,-0.90
2018-12-13T04:38:38.238Z,-0.80
2018-12-13T04:41:06.631Z,-0.80
2018-12-13T04:43:34.764Z,-0.90
2018-12-13T04:46:02.910Z,-0.90
2018-12-13T04:48:30.974Z,-0.90
2018-12-13T04:50:59.146Z,-0.80
2018-12-13T04:53:27.366Z,-0.90
2018-12-13T04:55:55.722Z,-0.90
2018-12-13T04:58:23.966Z,-1.00
2018-12-13T05:00:52.059Z,-1.00
2018-12-13T05:03:20.318Z,-0.90
2018-12-13T05:05:48.666Z,-0.70
2018-12-13T05:08:16.816Z,-0.60
2018-12-13T05:10:50.086Z,-0.60
2018-12-13T05:15:57.118Z,-0.50
2018-12-13T05:18:25.278Z,-0.50
2018-12-13T05:20:55.684Z,-0.50
2018-12-13T05:23:23.876Z,-0.50
2018-12-13T05:25:52.124Z,-0.60
2018-12-13T05:28:20.328Z,-0.50
2018-12-13T05:30:48.447Z,-0.40
2018-12-13T05:33:16.594Z,-0.40
2018-12-13T05:35:44.854Z,-0.40
2018-12-13T05:38:13.115Z,-0.40
2018-12-13T05:40:42.367Z,-0.40
2018-12-13T05:43:10.517Z,-0.40
2018-12-13T05:45:39.762Z,-0.40
2018-12-13T05:48:07.903Z,-0.50
2018-12-13T05:50:36.702Z,-0.40
2018-12-13T05:53:05.004Z,-0.50
2018-12-13T05:55:33.165Z,-0.50
2018-12-13T05:58:01.285Z,-0.50
2018-12-13T06:00:29.742Z,-0.50
2018-12-13T06:02:57.902Z,-0.50
2018-12-13T06:05:26.285Z,-0.40
2018-12-13T06:07:55.084Z,-0.40
2018-12-13T06:10:23.468Z,-0.40
2018-12-13T06:12:51.676Z,-0.50
2018-12-13T06:15:19.855Z,-0.50
2018-12-13T06:17:48.282Z,-0.50
2018-12-13T06:20:16.466Z,-0.50
2018-12-13T06:22:44.690Z,-0.50
2018-12-13T06:25:13.041Z,-0.50
2018-12-13T06:27:41.336Z,-0.50
2018-12-13T06:30:09.711Z,-0.50
2018-12-13T06:32:37.970Z,-0.50
2018-12-13T06:35:06.420Z,-0.60
2018-12-13T06:37:34.776Z,-0.60
2018-12-13T06:40:03.137Z,-0.70
2018-12-13T06:42:32.180Z,-0.70
2018-12-13T06:45:00.903Z,-0.60
2018-12-13T06:47:29.729Z,-0.60
2018-12-13T06:49:58.268Z,-0.70
2018-12-13T06:52:26.709Z,-0.70
2018-12-13T06:54:55.233Z,-0.70
2018-12-13T06:57:27.016Z,-0.80
2018-12-13T06:59:55.417Z,-0.70
2018-12-13T07:02:24.131Z,-0.60
2018-12-13T07:04:53.775Z,-0.60
2018-12-13T07:07:22.274Z,-0.60
2018-12-13T07:09:50.750Z,-0.60
2018-12-13T07:12:19.130Z,-0.60
2018-12-13T07:14:47.671Z,-0.70
2018-12-13T07:17:16.394Z,-0.70
2018-12-13T07:19:44.950Z,-0.70
2018-12-13T07:22:14.383Z,-0.70
2018-12-13T07:24:43.018Z,-0.70
2018-12-13T07:27:11.453Z,-0.70
2018-12-13T07:29:40.598Z,-0.70
2018-12-13T07:32:09.272Z,-0.60
2018-12-13T07:34:37.874Z,-0.60
2018-12-13T07:37:06.389Z,-0.50
2018-12-13T07:39:34.861Z,-0.60
2018-12-13T07:42:03.508Z,-0.60
2018-12-13T07:44:31.941Z,-0.60
2018-12-13T07:49:44.814Z,-0.50
2018-12-13T07:52:12.930Z,-0.40
2018-12-13T07:54:41.050Z,-0.30
2018-12-13T07:57:09.248Z,-0.30
2018-12-13T07:59:37.454Z,-0.30
2018-12-13T08:02:05.714Z,-0.30
2018-12-13T08:04:33.864Z,-0.30
2018-12-13T08:07:02.070Z,-0.30
2018-12-13T08:09:30.342Z,-0.20
2018-12-13T08:11:58.459Z,-0.10
2018-12-13T08:14:26.668Z,-0.20
2018-12-13T08:16:54.962Z,-0.20
2018-12-13T08:19:23.080Z,-0.10
2018-12-13T08:21:51.354Z,-0.10
2018-12-13T08:24:19.530Z,0.00
2018-12-13T08:26:47.695Z,0.00
2018-12-13T08:29:15.865Z,0.10
2018-12-13T08:31:44.154Z,0.10
2018-12-13T08:34:12.271Z,0.10
2018-12-13T08:36:40.554Z,0.20
2018-12-13T08:39:10.010Z,0.20
2018-12-13T08:41:38.547Z,0.30
2018-12-13T08:44:07.249Z,0.40
2018-12-13T08:46:36.664Z,0.40
2018-12-13T08:49:05.062Z,0.50
2018-12-13T08:51:33.180Z,0.50
2018-12-13T08:54:01.358Z,0.60
2018-12-13T08:56:29.557Z,0.70
2018-12-13T08:58:57.814Z,0.70
2018-12-13T09:01:26.064Z,0.70
2018-12-13T09:03:54.495Z,0.70
2018-12-13T09:06:22.893Z,0.70
2018-12-13T09:08:51.077Z,0.80
2018-12-13T09:11:19.354Z,0.80
2018-12-13T09:13:47.441Z,0.80
2018-12-13T09:16:15.698Z,0.90
2018-12-13T09:18:43.863Z,1.00
2018-12-13T09:21:12.066Z,1.00
2018-12-13T09:23:40.202Z,1.00
2018-12-13T09:26:08.430Z,1.10
2018-12-13T09:28:36.607Z,1.10
2018-12-13T09:31:04.742Z,1.10
2018-12-13T09:33:32.830Z,1.10
2018-12-13T09:36:01.075Z,1.20
2018-12-13T09:38:29.307Z,1.20
2018-12-13T09:40:57.492Z,1.20
2018-12-13T09:43:25.719Z,1.20
2018-12-13T09:45:53.867Z,1.30
2018-12-13T09:48:22.107Z,1.30
2018-12-13T09:50:50.350Z,1.40
2018-12-13T09:53:18.651Z,1.40
2018-12-13T09:55:46.897Z,1.50
2018-12-13T09:58:15.059Z,1.50
2018-12-13T10:00:43.435Z,1.50
2018-12-13T10:03:11.623Z,1.60
2018-12-13T10:05:39.691Z,1.70
2018-12-13T10:08:08.027Z,1.60
2018-12-13T10:10:36.111Z,1.70
2018-12-13T10:13:04.318Z,1.70
2018-12-13T10:15:32.641Z,1.70
2018-12-13T10:18:00.941Z,1.70
2018-12-13T10:20:29.140Z,1.80
2018-12-13T10:22:57.388Z,1.80
2018-12-13T10:25:25.496Z,2.00
2018-12-13T10:27:53.944Z,2.10
2018-12-13T10:30:22.257Z,2.20
2018-12-13T10:32:50.411Z,2.20
2018-12-13T10:35:18.747Z,2.30
2018-12-13T10:37:46.947Z,2.60
2018-12-13T10:40:15.181Z,3.50
2018-12-13T10:42:43.527Z,4.80
2018-12-13T10:45:11.742Z,5.10
2018-12-13T10:47:39.883Z,4.90
2018-12-13T10:50:08.526Z,4.10
2018-12-13T10:52:36.734Z,4.50
2018-12-13T10:55:05.315Z,4.30
2018-12-13T10:57:33.507Z,3.90
2018-12-13T11:00:01.690Z,4.30
2018-12-13T11:02:38.267Z,4.20
2018-12-13T11:05:06.529Z,3.80
2018-12-13T11:07:34.670Z,3.40
2018-12-13T11:10:02.902Z,3.30
2018-12-13T11:12:31.117Z,3.00
2018-12-13T11:14:59.498Z,2.90
2018-12-13T11:17:27.629Z,3.00
2018-12-13T11:19:55.799Z,3.00
2018-12-13T11:22:24.086Z,3.10
2018-12-13T11:24:52.271Z,3.00
2018-12-13T11:27:31.829Z,3.40
2018-12-13T11:30:36.558Z,3.80
2018-12-13T11:33:04.765Z,3.90
2018-12-13T11:35:32.871Z,3.60
2018-12-13T11:38:01.075Z,3.40
2018-12-13T11:40:29.274Z,3.30
2018-12-13T11:42:57.379Z,3.30
2018-12-13T11:45:25.914Z,3.20
2018-12-13T11:47:54.182Z,3.30
2018-12-13T11:50:22.605Z,3.20
2018-12-13T11:52:50.787Z,3.10
2018-12-13T11:55:36.293Z,3.20
2018-12-13T11:58:11.388Z,3.20
2018-12-13T12:00:39.818Z,3.20
2018-12-13T12:03:08.194Z,3.30
2018-12-13T12:05:36.378Z,3.40
2018-12-13T12:08:04.725Z,3.40
2018-12-13T12:10:33.042Z,3.50
2018-12-13T12:13:01.275Z,3.40
2018-12-13T12:15:29.481Z,3.40
2018-12-13T12:17:57.785Z,3.40
2018-12-13T12:20:25.926Z,3.30
2018-12-13T12:22:54.159Z,3.30
2018-12-13T12:25:22.379Z,3.20
2018-12-13T12:27:50.691Z,3.10
2018-12-13T12:30:18.900Z,3.10
2018-12-13T12:32:46.987Z,3.10
2018-12-13T12:35:15.186Z,3.00
2018-12-13T12:37:43.661Z,2.90
2018-12-13T12:40:12.065Z,2.90
2018-12-13T12:42:40.243Z,2.80
2018-12-13T12:45:08.430Z,2.80
2018-12-13T12:47:36.504Z,2.90
2018-12-13T12:50:06.331Z,3.00
2018-12-13T12:52:34.670Z,3.10
2018-12-13T12:55:03.052Z,3.20
2018-12-13T12:57:31.146Z,3.20
2018-12-13T12:59:59.569Z,3.10
2018-12-13T13:02:28.890Z,3.10
2018-12-13T13:04:57.102Z,3.10
2018-12-13T13:07:25.184Z,3.10
2018-12-13T13:09:53.637Z,3.00
2018-12-13T13:12:22.262Z,3.00
2018-12-13T13:14:50.378Z,2.90
2018-12-13T13:17:18.586Z,2.90
2018-12-13T13:19:46.806Z,2.90
2018-12-13T13:22:15.118Z,2.90
2018-12-13T13:24:43.285Z,2.90
2018-12-13T13:27:11.471Z,2.90
2018-12-13T13:29:39.566Z,2.90
2018-12-13T13:32:07.741Z,2.90
2018-12-13T13:34:35.994Z,2.90
2018-12-13T13:37:04.181Z,2.90
2018-12-13T13:39:32.414Z,2.80
2018-12-13T13:42:00.518Z,2.80
2018-12-13T13:44:34.079Z,2.90
2018-12-13T13:47:02.473Z,2.90
2018-12-13T13:49:30.895Z,2.90
2018-12-13T13:51:59.083Z,2.90
2018-12-13T13:54:27.362Z,2.90
2018-12-13T13:56:55.554Z,2.90
2018-12-13T13:59:23.706Z,2.90
2018-12-13T14:01:51.972Z,2.90
2018-12-13T14:04:20.357Z,2.90
2018-12-13T14:06:48.622Z,2.90
2018-12-13T14:09:16.834Z,2.90
2018-12-13T14:11:44.942Z,2.80
2018-12-13T14:14:13.193Z,2.70
2018-12-13T14:16:41.478Z,2.70
2018-12-13T14:19:10.606Z,2.60
2018-12-13T14:21:39.281Z,2.60
2018-12-13T14:24:07.596Z,2.60
2018-12-13T14:26:35.750Z,2.50
2018-12-13T14:29:04.033Z,2.40
2018-12-13T14:31:34.611Z,2.40
2018-12-13T14:34:02.918Z,2.30
2018-12-13T14:36:31.230Z,2.30
2018-12-13T14:38:59.346Z,2.40
2018-12-13T14:41:27.557Z,2.30
2018-12-13T14:43:55.710Z,2.30
2018-12-13T14:46:24.037Z,2.30
2018-12-13T14:48:52.294Z,2.30
2018-12-13T14:51:20.725Z,2.30
2018-12-13T14:53:48.927Z,2.30
2018-12-13T14:56:17.327Z,2.30
2018-12-13T14:58:45.610Z,2.20
2018-12-13T15:01:13.825Z,2.10
2018-12-13T15:03:41.962Z,2.20
2018-12-13T15:06:10.112Z,2.10
2018-12-13T15:08:38.466Z,2.10
2018-12-13T15:11:07.164Z,2.10
2018-12-13T15:13:35.378Z,2.10
2018-12-13T15:16:03.679Z,2.10
2018-12-13T15:18:31.859Z,2.00
2018-12-13T15:21:00.308Z,2.00
2018-12-13T15:23:28.591Z,2.00
2018-12-13T15:25:56.811Z,2.00
2018-12-13T15:28:25.129Z,2.00
2018-12-13T15:30:53.275Z,2.00
2018-12-13T15:33:21.344Z,2.00
2018-12-13T15:35:49.771Z,2.00
2018-12-13T15:38:17.918Z,1.90
2018-12-13T15:40:46.082Z,1.90
2018-12-13T15:43:14.218Z,1.90
2018-12-13T15:45:42.558Z,1.90
2018-12-13T15:48:10.660Z,1.90
2018-12-13T15:50:38.930Z,2.00
2018-12-13T15:53:07.001Z,2.00
2018-12-13T15:55:35.077Z,2.00
2018-12-13T15:58:03.283Z,2.00
2018-12-13T16:00:31.569Z,1.90
2018-12-13T16:02:59.904Z,1.90
2018-12-13T16:05:28.465Z,1.90
2018-12-13T16:07:57.496Z,2.00
2018-12-13T16:10:25.695Z,1.90
2018-12-13T16:12:53.906Z,1.90
2018-12-13T16:15:21.981Z,1.90
2018-12-13T16:17:50.563Z,1.90
2018-12-13T16:20:18.758Z,2.00
2018-12-13T16:22:46.969Z,1.90
2018-12-13T16:25:15.120Z,1.90
2018-12-13T16:27:43.345Z,1.90
2018-12-13T16:30:11.854Z,1.90
2018-12-13T16:32:40.260Z,1.80
2018-12-13T16:35:08.506Z,1.80
2018-12-13T16:37:36.590Z,1.80
2018-12-13T16:40:10.210Z,1.80
2018-12-13T16:42:35.726Z,1.80
2018-12-13T16:45:03.976Z,1.80
2018-12-13T16:47:32.370Z,1.80
2018-12-13T16:50:00.515Z,1.90
2018-12-13T16:52:28.734Z,1.80
2018-12-13T16:54:56.892Z,1.80
2018-12-13T16:57:25.530Z,1.80
2018-12-13T16:59:53.687Z,1.80
2018-12-13T17:02:21.774Z,1.80
2018-12-13T17:04:49.990Z,1.90
2018-12-13T17:07:18.276Z,1.80
2018-12-13T17:09:46.490Z,1.80
2018-12-13T17:12:14.714Z,1.80
2018-12-13T17:14:43.008Z,1.90
2018-12-13T17:17:11.321Z,1.90
2018-12-13T17:19:39.574Z,1.80
2018-12-13T17:22:07.666Z,1.80
2018-12-13T17:24:35.822Z,1.80
2018-12-13T17:27:03.914Z,1.80
2018-12-13T17:29:32.249Z,1.90
2018-12-13T17:32:00.345Z,1.80
2018-12-13T17:34:28.622Z,1.80
2018-12-13T17:36:56.942Z,1.80
2018-12-13T17:39:25.083Z,1.80
2018-12-13T17:41:53.231Z,1.80
2018-12-13T17:44:21.600Z,1.70
2018-12-13T17:46:49.802Z,1.70
2018-12-13T17:49:17.979Z,1.70
2018-12-13T17:51:46.179Z,1.70
2018-12-13T17:54:14.493Z,1.70
2018-12-13T17:56:42.678Z,1.60
2018-12-13T17:59:10.971Z,1.70
2018-12-13T18:01:39.077Z,1.60
2018-12-13T18:04:07.392Z,1.60
2018-12-13T18:06:35.574Z,1.60
2018-12-13T18:09:05.446Z,1.60
2018-12-13T18:11:33.639Z,1.80
2018-12-13T18:14:01.838Z,1.80
2018-12-13T18:16:30.100Z,1.70
2018-12-13T18:18:58.322Z,1.70
2018-12-13T18:21:26.622Z,1.70
2018-12-13T18:23:54.731Z,1.70
2018-12-13T18:26:22.990Z,1.70
2018-12-13T18:28:51.239Z,1.70
2018-12-13T18:31:19.304Z,1.60
2018-12-13T18:33:47.447Z,1.60
2018-12-13T18:36:15.650Z,1.70
2018-12-13T18:38:43.875Z,1.70
2018-12-13T18:41:12.172Z,1.60
2018-12-13T18:43:40.382Z,1.60
2018-12-13T18:46:08.757Z,1.60
2018-12-13T18:48:37.010Z,1.60
2018-12-13T18:51:05.164Z,1.60
2018-12-13T18:53:33.295Z,1.60
2018-12-13T18:56:01.463Z,1.70
2018-12-13T18:58:29.610Z,1.70
2018-12-13T19:00:57.960Z,1.70
2018-12-13T19:03:26.301Z,1.70
2018-12-13T19:05:54.523Z,1.70
2018-12-13T19:08:22.677Z,1.70
2018-12-13T19:10:51.033Z,1.60
2018-12-13T19:13:19.340Z,1.70
2018-12-13T19:15:47.454Z,1.70
2018-12-13T19:18:15.822Z,1.70
2018-12-13T19:20:44.171Z,1.70
2018-12-13T19:23:12.275Z,1.70
2018-12-13T19:25:40.398Z,1.70
2018-12-13T19:28:08.626Z,1.70
2018-12-13T19:30:36.938Z,1.70
2018-12-13T19:33:05.137Z,1.70
2018-12-13T19:35:33.567Z,1.60
2018-12-13T19:38:01.859Z,1.60
2018-12-13T19:40:30.126Z,1.60
2018-12-13T19:42:58.302Z,1.60
2018-12-13T19:45:26.570Z,1.60
2018-12-13T19:47:54.703Z,1.70
2018-12-13T19:50:22.943Z,1.60
2018-12-13T19:52:51.050Z,1.60
2018-12-13T19:55:19.166Z,1.60
2018-12-13T19:57:47.282Z,1.70
2018-12-13T20:00:15.550Z,1.60
2018-12-13T20:02:43.797Z,1.70
2018-12-13T20:05:11.958Z,1.70
2018-12-13T20:07:40.090Z,1.60
2018-12-13T20:10:08.911Z,1.60
2018-12-13T20:12:37.182Z,1.60
2018-12-13T20:15:05.931Z,1.60
2018-12-13T20:17:34.178Z,1.60
2018-12-13T20:20:02.510Z,1.60
2018-12-13T20:22:30.603Z,1.60
2018-12-13T20:24:58.804Z,1.60
2018-12-13T20:27:27.110Z,1.60
2018-12-13T20:29:55.282Z,1.60
2018-12-13T20:32:24.079Z,1.60
2018-12-13T20:34:52.505Z,1.60
2018-12-13T20:37:20.734Z,1.60
2018-12-13T20:39:49.222Z,1.60
2018-12-13T20:42:17.798Z,1.60
2018-12-13T20:44:45.946Z,1.70
2018-12-13T20:47:14.021Z,1.70
2018-12-13T20:49:42.105Z,1.60
2018-12-13T20:52:10.275Z,1.60
2018-12-13T20:54:38.396Z,1.50
2018-12-13T20:57:06.730Z,1.50
2018-12-13T20:59:35.111Z,1.60
2018-12-13T21:02:03.343Z,1.60
2018-12-13T21:04:31.505Z,1.60
2018-12-13T21:07:05.488Z,1.60
2018-12-13T21:09:33.896Z,1.60
2018-12-13T21:12:02.038Z,1.50
2018-12-13T21:14:30.226Z,1.60
2018-12-13T21:17:00.102Z,1.50
2018-12-13T21:19:28.642Z,1.50
2018-12-13T21:21:56.853Z,1.50
2018-12-13T21:24:25.107Z,1.50
2018-12-13T21:26:53.362Z,1.50
2018-12-13T21:29:21.484Z,1.50
2018-12-13T21:31:49.822Z,1.50
2018-12-13T21:34:18.027Z,1.50
2018-12-13T21:36:46.420Z,1.50
2018-12-13T21:39:14.599Z,1.50
2018-12-13T21:41:42.730Z,1.50
2018-12-13T21:44:10.891Z,1.40
2018-12-13T21:46:39.159Z,1.50
2018-12-13T21:49:08.294Z,1.50
2018-12-13T21:51:36.497Z,1.50
2018-12-13T21:54:04.858Z,1.50
2018-12-13T21:56:33.138Z,1.50
2018-12-13T21:59:03.905Z,1.50
2018-12-13T22:01:31.738Z,1.40
2018-12-13T22:04:00.266Z,1.40
2018-12-13T22:06:28.476Z,1.50
2018-12-13T22:08:56.758Z,1.40
2018-12-13T22:11:25.379Z,1.50
2018-12-13T22:13:53.586Z,1.50
2018-12-13T22:16:21.847Z,1.50
2018-12-13T22:18:49.964Z,1.40
2018-12-13T22:21:18.170Z,1.40
2018-12-13T22:23:46.400Z,1.50
2018-12-13T22:26:14.817Z,1.40
2018-12-13T22:28:42.966Z,1.50
2018-12-13T22:31:11.115Z,1.50
2018-12-13T22:33:39.219Z,1.40
2018-12-13T22:36:07.319Z,1.40
2018-12-13T22:38:35.508Z,1.50
2018-12-13T22:41:04.086Z,1.50
2018-12-13T22:43:32.462Z,1.50
2018-12-13T22:46:03.546Z,1.50
2018-12-13T22:48:32.620Z,1.50
2018-12-13T22:51:01.266Z,1.50
2018-12-13T22:53:29.515Z,1.50
2018-12-13T22:55:58.256Z,1.50
2018-12-13T22:58:26.366Z,1.40
2018-12-13T23:00:54.702Z,1.50
2018-12-13T23:03:22.869Z,1.50
2018-12-13T23:05:51.014Z,1.50
2018-12-13T23:08:19.292Z,1.50
2018-12-13T23:10:47.745Z,1.50
2018-12-13T23:13:15.946Z,1.50
2018-12-13T23:15:44.312Z,1.50
2018-12-13T23:18:12.543Z,1.50
2018-12-13T23:20:40.762Z,1.50
2018-12-13T23:23:08.858Z,1.50
2018-12-13T23:25:36.994Z,1.50
2018-12-13T23:28:05.115Z,1.40
2018-12-13T23:30:33.384Z,1.50
2018-12-13T23:33:01.550Z,1.50
2018-12-13T23:35:29.673Z,1.40
2018-12-13T23:37:57.987Z,1.40
2018-12-13T23:40:26.127Z,1.40
2018-12-13T23:42:54.257Z,1.40
2018-12-13T23:45:22.530Z,1.40
2018-12-13T23:47:50.622Z,1.40
2018-12-13T23:50:18.882Z,1.40
2018-12-13T23:52:47.147Z,1.40
2018-12-13T23:55:15.273Z,1.40
2018-12-13T23:57:43.433Z,1.40
